sensor_id;sensor_type;location;lat;lon;timestamp;pressure;altitude;pressure_sealevel;temperature;humidity
48267;BME280;34088;52.232;5.196;2023-11-21T00:01:37;101151.00;;;8.14;100.00
48267;BME280;34088;52.232;5.196;2023-11-21T00:04:03;101153.66;;;8.11;100.00
48267;BME280;34088;52.232;5.196;2023-11-21T00:06:28;101158.00;;;8.09;100.00
48267;BME280;34088;52.232;5.196;2023-11-21T00:08:55;101167.47;;;8.08;100.00
48267;BME280;34088;52.232;5.196;2023-11-21T00:11:20;101165.00;;;8.02;100.00
48267;BME280;34088;52.232;5.196;2023-11-21T00:13:46;101169.25;;;8.05;100.00
48267;BME280;34088;52.232;5.196;2023-11-21T00:16:11;101162.44;;;8.02;100.00
48267;BME280;34088;52.232;5.196;2023-11-21T00:18:36;101160.88;;;7.92;100.00
48267;BME280;34088;52.232;5.196;2023-11-21T00:33:29;101177.47;;;7.79;100.00
48267;BME280;34088;52.232;5.196;2023-11-21T00:35:54;101181.81;;;7.76;100.00
48267;BME280;34088;52.232;5.196;2023-11-21T00:38:19;101179.34;;;7.71;100.00
48267;BME280;34088;52.232;5.196;2023-11-21T00:40:45;101181.91;;;7.71;100.00
48267;BME280;34088;52.232;5.196;2023-11-21T00:43:10;101182.84;;;7.67;100.00
48267;BME280;34088;52.232;5.196;2023-11-21T00:45:36;101169.19;;;7.62;100.00
48267;BME280;34088;52.232;5.196;2023-11-21T00:48:02;101178.59;;;7.65;100.00
48267;BME280;34088;52.232;5.196;2023-11-21T00:50:30;101184.59;;;7.65;100.00
48267;BME280;34088;52.232;5.196;2023-11-21T00:52:55;101190.47;;;7.72;100.00
48267;BME280;34088;52.232;5.196;2023-11-21T00:55:21;101190.47;;;7.72;100.00
48267;BME280;34088;52.232;5.196;2023-11-21T00:57:46;101191.38;;;7.69;100.00
48267;BME280;34088;52.232;5.196;2023-11-21T01:00:12;101199.84;;;7.77;100.00
48267;BME280;34088;52.232;5.196;2023-11-21T01:02:42;101194.53;;;7.85;100.00
48267;BME280;34088;52.232;5.196;2023-11-21T01:05:08;101202.19;;;7.89;100.00
48267;BME280;34088;52.232;5.196;2023-11-21T01:07:34;101197.88;;;7.90;100.00
48267;BME280;34088;52.232;5.196;2023-11-21T01:09:59;101203.91;;;7.89;100.00
48267;BME280;34088;52.232;5.196;2023-11-21T01:12:24;101211.53;;;7.96;100.00
48267;BME280;34088;52.232;5.196;2023-11-21T01:14:50;101196.88;;;7.97;100.00
48267;BME280;34088;52.232;5.196;2023-11-21T01:17:16;101207.19;;;7.98;100.00
48267;BME280;34088;52.232;5.196;2023-11-21T01:19:42;101208.84;;;8.01;100.00
48267;BME280;34088;52.232;5.196;2023-11-21T01:22:07;101209.59;;;8.07;100.00
48267;BME280;34088;52.232;5.196;2023-11-21T01:24:33;101212.09;;;8.12;100.00
48267;BME280;34088;52.232;5.196;2023-11-21T01:26:59;101205.25;;;8.09;100.00
48267;BME280;34088;52.232;5.196;2023-11-21T01:29:24;101215.53;;;8.11;100.00
48267;BME280;34088;52.232;5.196;2023-11-21T01:31:49;101210.28;;;8.17;100.00
48267;BME280;34088;52.232;5.196;2023-11-21T01:34:15;101212.00;;;8.16;100.00
48267;BME280;34088;52.232;5.196;2023-11-21T01:36:40;101210.28;;;8.17;100.00
48267;BME280;34088;52.232;5.196;2023-11-21T01:39:05;101223.00;;;8.26;100.00
48267;BME280;34088;52.232;5.196;2023-11-21T01:41:33;101218.75;;;8.25;100.00
48267;BME280;34088;52.232;5.196;2023-11-21T01:44:00;101218.84;;;8.20;100.00
48267;BME280;34088;52.232;5.196;2023-11-21T01:46:26;101227.25;;;8.28;100.00
48267;BME280;34088;52.232;5.196;2023-11-21T01:48:52;101230.59;;;8.35;100.00
48267;BME280;34088;52.232;5.196;2023-11-21T01:51:18;101226.34;;;8.32;100.00
48267;BME280;34088;52.232;5.196;2023-11-21T01:53:44;101238.28;;;8.38;100.00
48267;BME280;34088;52.232;5.196;2023-11-21T01:56:12;101242.47;;;8.42;100.00
48267;BME280;34088;52.232;5.196;2023-11-21T01:58:38;101245.84;;;8.45;100.00
48267;BME280;34088;52.232;5.196;2023-11-21T02:01:04;101237.31;;;8.42;100.00
48267;BME280;34088;52.232;5.196;2023-11-21T02:03:30;101246.63;;;8.50;100.00
48267;BME280;34088;52.232;5.196;2023-11-21T02:05:56;101247.47;;;8.51;100.00
48267;BME280;34088;52.232;5.196;2023-11-21T02:08:21;101249.97;;;8.54;100.00
48267;BME280;34088;52.232;5.196;2023-11-21T02:10:46;101256.84;;;8.55;100.00
48267;BME280;34088;52.232;5.196;2023-11-21T02:13:13;101261.16;;;8.56;100.00
48267;BME280;34088;52.232;5.196;2023-11-21T02:15:38;101261.16;;;8.56;100.00
48267;BME280;34088;52.232;5.196;2023-11-21T02:18:04;101266.22;;;8.59;100.00
48267;BME280;34088;52.232;5.196;2023-11-21T02:20:31;101267.09;;;8.59;100.00
48267;BME280;34088;52.232;5.196;2023-11-21T02:23:00;101265.41;;;8.58;100.00
48267;BME280;34088;52.232;5.196;2023-11-21T02:25:26;101277.38;;;8.61;100.00
48267;BME280;34088;52.232;5.196;2023-11-21T02:27:53;101269.69;;;8.59;100.00
48267;BME280;34088;52.232;5.196;2023-11-21T02:30:20;101257.59;;;8.60;100.00
48267;BME280;34088;52.232;5.196;2023-11-21T02:32:46;101270.44;;;8.64;100.00
48267;BME280;34088;52.232;5.196;2023-11-21T02:35:13;101277.28;;;8.65;100.00
48267;BME280;34088;52.232;5.196;2023-11-21T02:37:38;101278.06;;;8.69;100.00
48267;BME280;34088;52.232;5.196;2023-11-21T02:40:04;101279.78;;;8.68;100.00
48267;BME280;34088;52.232;5.196;2023-11-21T02:42:31;101273.81;;;8.66;100.00
48267;BME280;34088;52.232;5.196;2023-11-21T02:44:56;101275.53;;;8.67;100.00
48267;BME280;34088;52.232;5.196;2023-11-21T02:47:22;101274.75;;;8.64;100.00
48267;BME280;34088;52.232;5.196;2023-11-21T02:49:48;101273.88;;;8.63;100.00
48267;BME280;34088;52.232;5.196;2023-11-21T02:52:13;101258.56;;;8.56;100.00
48267;BME280;34088;52.232;5.196;2023-11-21T02:54:39;101264.41;;;8.64;100.00
48267;BME280;34088;52.232;5.196;2023-11-21T02:57:04;101270.44;;;8.64;100.00
48267;BME280;34088;52.232;5.196;2023-11-21T02:59:29;101274.84;;;8.59;100.00
48267;BME280;34088;52.232;5.196;2023-11-21T03:01:55;101274.84;;;8.59;100.00
48267;BME280;34088;52.232;5.196;2023-11-21T03:04:21;101274.84;;;8.58;100.00
48267;BME280;34088;52.232;5.196;2023-11-21T03:06:47;101274.06;;;8.54;100.00
48267;BME280;34088;52.232;5.196;2023-11-21T03:09:12;101274.91;;;8.55;100.00
48267;BME280;34088;52.232;5.196;2023-11-21T03:11:37;101271.50;;;8.54;100.00
48267;BME280;34088;52.232;5.196;2023-11-21T03:14:03;101274.91;;;8.55;100.00
48267;BME280;34088;52.232;5.196;2023-11-21T03:16:28;101273.16;;;8.57;100.00
48267;BME280;34088;52.232;5.196;2023-11-21T03:18:54;101276.56;;;8.59;100.00
48267;BME280;34088;52.232;5.196;2023-11-21T03:21:19;101282.53;;;8.61;100.00
48267;BME280;34088;52.232;5.196;2023-11-21T03:23:45;101285.16;;;8.59;100.00
48267;BME280;34088;52.232;5.196;2023-11-21T03:26:13;101273.97;;;8.59;100.00
48267;BME280;34088;52.232;5.196;2023-11-21T03:28:38;101285.97;;;8.61;100.00
48267;BME280;34088;52.232;5.196;2023-11-21T03:31:04;101285.97;;;8.61;100.00
48267;BME280;34088;52.232;5.196;2023-11-21T03:33:31;101282.47;;;8.64;100.00
48267;BME280;34088;52.232;5.196;2023-11-21T03:35:56;101279.94;;;8.61;100.00
48267;BME280;34088;52.232;5.196;2023-11-21T03:38:22;101279.03;;;8.63;100.00
48267;BME280;34088;52.232;5.196;2023-11-21T03:40:48;101292.81;;;8.64;100.00
48267;BME280;34088;52.232;5.196;2023-11-21T03:43:14;101291.91;;;8.65;100.00
48267;BME280;34088;52.232;5.196;2023-11-21T03:45:39;101293.56;;;8.69;100.00
48267;BME280;34088;52.232;5.196;2023-11-21T03:48:06;101297.03;;;8.68;100.00
48267;BME280;34088;52.232;5.196;2023-11-21T03:50:31;101298.66;;;8.72;100.00
48267;BME280;34088;52.232;5.196;2023-11-21T03:52:57;101297.78;;;8.73;100.00
48267;BME280;34088;52.232;5.196;2023-11-21T03:55:22;101298.59;;;8.75;100.00
48267;BME280;34088;52.232;5.196;2023-11-21T03:57:49;101295.25;;;8.71;100.00
48267;BME280;34088;52.232;5.196;2023-11-21T04:00:14;101301.97;;;8.78;100.00
48267;BME280;34088;52.232;5.196;2023-11-21T04:02:40;101314.88;;;8.78;100.00
48267;BME280;34088;52.232;5.196;2023-11-21T04:05:05;101315.75;;;8.79;100.00
48267;BME280;34088;52.232;5.196;2023-11-21T04:07:32;101325.16;;;8.81;100.00
48267;BME280;34088;52.232;5.196;2023-11-21T04:09:57;101324.34;;;8.78;100.00
48267;BME280;34088;52.232;5.196;2023-11-21T04:12:23;101329.38;;;8.84;100.00
48267;BME280;34088;52.232;5.196;2023-11-21T04:14:48;101325.09;;;8.83;100.00
48267;BME280;34088;52.232;5.196;2023-11-21T04:17:13;101327.66;;;8.84;100.00
48267;BME280;34088;52.232;5.196;2023-11-21T04:19:39;101325.94;;;8.85;100.00
48267;BME280;34088;52.232;5.196;2023-11-21T04:22:04;101339.66;;;8.87;100.00
48267;BME280;34088;52.232;5.196;2023-11-21T04:24:29;101341.31;;;8.91;100.00
48267;BME280;34088;52.232;5.196;2023-11-21T04:26:55;101344.69;;;8.94;100.00
48267;BME280;34088;52.232;5.196;2023-11-21T04:29:20;101356.56;;;9.03;100.00
48267;BME280;34088;52.232;5.196;2023-11-21T04:31:46;101359.06;;;9.07;100.00
48267;BME280;34088;52.232;5.196;2023-11-21T04:34:11;101366.91;;;9.03;100.00
48267;BME280;34088;52.232;5.196;2023-11-21T04:36:36;101363.53;;;8.99;100.00
48267;BME280;34088;52.232;5.196;2023-11-21T04:39:02;101362.53;;;9.05;100.00
48267;BME280;34088;52.232;5.196;2023-11-21T04:41:27;101359.97;;;9.05;100.00
48267;BME280;34088;52.232;5.196;2023-11-21T04:43:53;101362.53;;;9.05;100.00
48267;BME280;34088;52.232;5.196;2023-11-21T04:46:18;101366.81;;;9.06;100.00
48267;BME280;34088;52.232;5.196;2023-11-21T04:48:43;101364.25;;;9.06;100.00
48267;BME280;34088;52.232;5.196;2023-11-21T04:51:09;101359.06;;;9.06;100.00
48267;BME280;34088;52.232;5.196;2023-11-21T04:53:36;101360.84;;;9.04;100.00
48267;BME280;34088;52.232;5.196;2023-11-21T04:56:02;101371.97;;;9.06;100.00
48267;BME280;34088;52.232;5.196;2023-11-21T04:58:28;101363.31;;;9.10;100.00
48267;BME280;34088;52.232;5.196;2023-11-21T05:00:53;101368.38;;;9.14;100.00
48267;BME280;34088;52.232;5.196;2023-11-21T05:03:19;101376.97;;;9.16;100.00
48267;BME280;34088;52.232;5.196;2023-11-21T05:05:44;101376.09;;;9.16;100.00
48267;BME280;34088;52.232;5.196;2023-11-21T05:08:09;101371.72;;;9.18;100.00
48267;BME280;34088;52.232;5.196;2023-11-21T05:10:35;101380.38;;;9.17;100.00
48267;BME280;34088;52.232;5.196;2023-11-21T05:13:03;101379.56;;;9.15;100.00
48267;BME280;34088;52.232;5.196;2023-11-21T05:15:28;101385.44;;;9.21;100.00
48267;BME280;34088;52.232;5.196;2023-11-21T05:17:54;101382.81;;;9.24;100.00
48267;BME280;34088;52.232;5.196;2023-11-21T05:20:20;101392.16;;;9.30;100.00
48267;BME280;34088;52.232;5.196;2023-11-21T05:22:49;101393.88;;;9.31;100.00
48267;BME280;34088;52.232;5.196;2023-11-21T05:25:15;101395.53;;;9.33;100.00
48267;BME280;34088;52.232;5.196;2023-11-21T05:27:40;101398.94;;;9.35;100.00
48267;BME280;34088;52.232;5.196;2023-11-21T05:30:06;101403.25;;;9.35;100.00
48267;BME280;34088;52.232;5.196;2023-11-21T05:32:32;101408.28;;;9.41;100.00
48267;BME280;34088;52.232;5.196;2023-11-21T05:34:57;101408.28;;;9.41;100.00
48267;BME280;34088;52.232;5.196;2023-11-21T05:37:23;101414.31;;;9.41;100.00
48267;BME280;34088;52.232;5.196;2023-11-21T05:39:49;101414.25;;;9.44;100.00
48267;BME280;34088;52.232;5.196;2023-11-21T05:42:14;101424.53;;;9.47;100.00
48267;BME280;34088;52.232;5.196;2023-11-21T05:44:43;101419.34;;;9.49;100.00
48267;BME280;34088;52.232;5.196;2023-11-21T05:47:08;101426.19;;;9.50;100.00
48267;BME280;34088;52.232;5.196;2023-11-21T05:49:34;101427.94;;;9.48;100.00
48267;BME280;34088;52.232;5.196;2023-11-21T05:52:00;101431.41;;;9.47;100.00
48267;BME280;34088;52.232;5.196;2023-11-21T05:54:25;101435.69;;;9.49;100.00
48267;BME280;34088;52.232;5.196;2023-11-21T05:56:51;101437.34;;;9.52;100.00
48267;BME280;34088;52.232;5.196;2023-11-21T05:59:16;101432.28;;;9.47;100.00
48267;BME280;34088;52.232;5.196;2023-11-21T06:01:42;101441.72;;;9.50;100.00
48267;BME280;34088;52.232;5.196;2023-11-21T06:04:07;101445.97;;;9.52;100.00
48267;BME280;34088;52.232;5.196;2023-11-21T06:06:36;101441.59;;;9.56;100.00
48267;BME280;34088;52.232;5.196;2023-11-21T06:09:01;101447.63;;;9.55;100.00
48267;BME280;34088;52.232;5.196;2023-11-21T06:11:27;101442.59;;;9.49;100.00
48267;BME280;34088;52.232;5.196;2023-11-21T06:13:52;101461.25;;;9.63;100.00
48267;BME280;34088;52.232;5.196;2023-11-21T06:16:18;101462.03;;;9.66;100.00
48267;BME280;34088;52.232;5.196;2023-11-21T06:18:45;101467.22;;;9.64;100.00
48267;BME280;34088;52.232;5.196;2023-11-21T06:21:10;101468.94;;;9.66;100.00
48267;BME280;34088;52.232;5.196;2023-11-21T06:23:36;101468.91;;;9.67;100.00
48267;BME280;34088;52.232;5.196;2023-11-21T06:26:01;101475.72;;;9.71;100.00
48267;BME280;34088;52.232;5.196;2023-11-21T06:28:26;101475.72;;;9.71;100.00
48267;BME280;34088;52.232;5.196;2023-11-21T06:30:52;101477.31;;;9.76;100.00
48267;BME280;34088;52.232;5.196;2023-11-21T06:33:18;101472.09;;;9.79;100.00
48267;BME280;34088;52.232;5.196;2023-11-21T06:35:44;101471.94;;;9.85;100.00
48267;BME280;34088;52.232;5.196;2023-11-21T06:38:10;101480.34;;;9.95;100.00
48267;BME280;34088;52.232;5.196;2023-11-21T06:40:35;101484.63;;;9.97;100.00
48267;BME280;34088;52.232;5.196;2023-11-21T06:43:00;101476.81;;;10.00;100.00
48267;BME280;34088;52.232;5.196;2023-11-21T06:45:26;101488.91;;;9.98;100.00
48267;BME280;34088;52.232;5.196;2023-11-21T06:47:51;101494.16;;;9.95;100.00
48267;BME280;34088;52.232;5.196;2023-11-21T06:50:16;101500.09;;;10.00;100.00
48267;BME280;34088;52.232;5.196;2023-11-21T06:52:42;101503.47;;;10.04;100.00
48267;BME280;34088;52.232;5.196;2023-11-21T06:55:08;101501.53;;;10.15;100.00
48267;BME280;34088;52.232;5.196;2023-11-21T06:57:35;101506.75;;;10.12;100.00
48267;BME280;34088;52.232;5.196;2023-11-21T07:00:00;101511.81;;;10.16;100.00
48267;BME280;34088;52.232;5.196;2023-11-21T07:02:25;101510.91;;;10.17;100.00
48267;BME280;34088;52.232;5.196;2023-11-21T07:04:50;101508.34;;;10.17;100.00
48267;BME280;34088;52.232;5.196;2023-11-21T07:07:16;101516.03;;;10.20;100.00
48267;BME280;34088;52.232;5.196;2023-11-21T07:09:41;101524.69;;;10.19;100.00
48267;BME280;34088;52.232;5.196;2023-11-21T07:12:07;101521.22;;;10.20;100.00
48267;BME280;34088;52.232;5.196;2023-11-21T07:14:35;101530.66;;;10.23;100.00
48267;BME280;34088;52.232;5.196;2023-11-21T07:17:02;101532.34;;;10.24;100.00
48267;BME280;34088;52.232;5.196;2023-11-21T07:19:27;101533.13;;;10.27;100.00
48267;BME280;34088;52.232;5.196;2023-11-21T07:21:53;101527.91;;;10.30;100.00
48267;BME280;34088;52.232;5.196;2023-11-21T07:24:18;101530.53;;;10.27;100.00
48267;BME280;34088;52.232;5.196;2023-11-21T07:26:43;101539.06;;;10.31;100.00
48267;BME280;34088;52.232;5.196;2023-11-21T07:29:09;101544.22;;;10.32;100.00
48267;BME280;34088;52.232;5.196;2023-11-21T07:31:36;101543.34;;;10.33;100.00
48267;BME280;34088;52.232;5.196;2023-11-21T07:34:01;101548.50;;;10.35;100.00
48267;BME280;34088;52.232;5.196;2023-11-21T07:36:27;101554.44;;;10.38;100.00
48267;BME280;34088;52.232;5.196;2023-11-21T07:38:52;101551.00;;;10.38;100.00
48267;BME280;34088;52.232;5.196;2023-11-21T07:41:17;101570.78;;;10.40;100.00
48267;BME280;34088;52.232;5.196;2023-11-21T07:43:44;101555.44;;;10.33;100.00
48267;BME280;34088;52.232;5.196;2023-11-21T07:46:10;101575.97;;;10.40;100.00
48267;BME280;34088;52.232;5.196;2023-11-21T07:48:38;101578.50;;;10.43;100.00
48267;BME280;34088;52.232;5.196;2023-11-21T07:51:03;101566.44;;;10.42;100.00
48267;BME280;34088;52.232;5.196;2023-11-21T07:53:29;101577.63;;;10.43;100.00
48267;BME280;34088;52.232;5.196;2023-11-21T07:55:56;101583.59;;;10.46;100.00
48267;BME280;34088;52.232;5.196;2023-11-21T07:58:21;101599.19;;;10.45;100.00
48267;BME280;34088;52.232;5.196;2023-11-21T08:00:47;101605.16;;;10.47;100.00
48267;BME280;34088;52.232;5.196;2023-11-21T08:03:13;101607.75;;;10.47;100.00
48267;BME280;34088;52.232;5.196;2023-11-21T08:05:38;101610.31;;;10.48;100.00
48267;BME280;34088;52.232;5.196;2023-11-21T08:08:04;101612.16;;;10.43;100.00
48267;BME280;34088;52.232;5.196;2023-11-21T08:10:29;101622.38;;;10.48;100.00
48267;BME280;34088;52.232;5.196;2023-11-21T08:12:55;101630.19;;;10.46;100.00
48267;BME280;34088;52.232;5.196;2023-11-21T08:15:20;101627.53;;;10.49;100.00
48267;BME280;34088;52.232;5.196;2023-11-21T08:17:46;101644.00;;;10.47;100.00
48267;BME280;34088;52.232;5.196;2023-11-21T08:20:11;101640.53;;;10.46;100.00
48267;BME280;34088;52.232;5.196;2023-11-21T08:22:37;101643.97;;;10.48;100.00
48267;BME280;34088;52.232;5.196;2023-11-21T08:25:03;101643.84;;;10.53;100.00
48267;BME280;34088;52.232;5.196;2023-11-21T08:27:29;101656.00;;;10.51;100.00
48267;BME280;34088;52.232;5.196;2023-11-21T08:29:55;101657.59;;;10.55;100.00
48267;BME280;34088;52.232;5.196;2023-11-21T08:32:21;101660.13;;;10.59;100.00
48267;BME280;34088;52.232;5.196;2023-11-21T08:34:46;101665.16;;;10.65;100.00
48267;BME280;34088;52.232;5.196;2023-11-21T08:37:15;101669.50;;;10.63;100.00
48267;BME280;34088;52.232;5.196;2023-11-21T08:39:41;101675.53;;;10.65;100.00
48267;BME280;34088;52.232;5.196;2023-11-21T08:42:07;101678.94;;;10.67;100.00
48267;BME280;34088;52.232;5.196;2023-11-21T08:44:33;101681.41;;;10.72;100.00
48267;BME280;34088;52.232;5.196;2023-11-21T08:46:58;101685.78;;;10.70;100.00
48267;BME280;34088;52.232;5.196;2023-11-21T08:49:23;101696.13;;;10.71;100.00
48267;BME280;34088;52.232;5.196;2023-11-21T08:51:51;101697.16;;;10.63;100.00
48267;BME280;34088;52.232;5.196;2023-11-21T08:54:16;101705.75;;;10.63;100.00
48267;BME280;34088;52.232;5.196;2023-11-21T08:56:43;101699.91;;;10.55;100.00
48267;BME280;34088;52.232;5.196;2023-11-21T08:59:08;101715.44;;;10.55;100.00
48267;BME280;34088;52.232;5.196;2023-11-21T09:01:34;101722.38;;;10.53;100.00
48267;BME280;34088;52.232;5.196;2023-11-21T09:03:59;101724.97;;;10.53;100.00
48267;BME280;34088;52.232;5.196;2023-11-21T09:06:24;101723.31;;;10.51;100.00
48267;BME280;34088;52.232;5.196;2023-11-21T09:08:50;101726.59;;;10.57;100.00
48267;BME280;34088;52.232;5.196;2023-11-21T09:11:15;101727.63;;;10.49;100.00
48267;BME280;34088;52.232;5.196;2023-11-21T09:13:40;101737.00;;;10.56;100.00
48267;BME280;34088;52.232;5.196;2023-11-21T09:16:06;101736.16;;;10.55;100.00
48267;BME280;34088;52.232;5.196;2023-11-21T09:18:32;101734.47;;;10.53;100.00
48267;BME280;34088;52.232;5.196;2023-11-21T09:20:57;101735.47;;;10.47;100.00
48267;BME280;34088;52.232;5.196;2023-11-21T09:23:23;101748.53;;;10.41;100.00
48267;BME280;34088;52.232;5.196;2023-11-21T09:25:48;101748.44;;;10.44;100.00
48267;BME280;34088;52.232;5.196;2023-11-21T09:28:15;101751.03;;;10.44;100.00
48267;BME280;34088;52.232;5.196;2023-11-21T09:30:41;101765.00;;;10.37;100.00
48267;BME280;34088;52.232;5.196;2023-11-21T09:33:06;101764.97;;;10.39;100.00
48267;BME280;34088;52.232;5.196;2023-11-21T09:35:32;101771.75;;;10.43;100.00
48267;BME280;34088;52.232;5.196;2023-11-21T09:37:57;101781.31;;;10.41;100.00
48267;BME280;34088;52.232;5.196;2023-11-21T09:40:23;101784.91;;;10.34;100.00
48267;BME280;34088;52.232;5.196;2023-11-21T09:42:56;101785.78;;;10.33;100.00
48267;BME280;34088;52.232;5.196;2023-11-21T09:45:25;101792.66;;;10.35;100.00
48267;BME280;34088;52.232;5.196;2023-11-21T09:47:52;101793.56;;;10.31;100.00
48267;BME280;34088;52.232;5.196;2023-11-21T09:50:17;101797.03;;;10.30;100.00
48267;BME280;34088;52.232;5.196;2023-11-21T09:55:42;101799.63;;;10.30;100.00
48267;BME280;34088;52.232;5.196;2023-11-21T09:58:08;101806.56;;;10.28;100.00
48267;BME280;34088;52.232;5.196;2023-11-21T10:00:39;101798.78;;;10.28;100.00
48267;BME280;34088;52.232;5.196;2023-11-21T10:03:05;101803.91;;;10.33;100.00
48267;BME280;34088;52.232;5.196;2023-11-21T10:05:30;101813.41;;;10.31;100.00
48267;BME280;34088;52.232;5.196;2023-11-21T10:07:59;101810.00;;;10.30;100.00
48267;BME280;34088;52.232;5.196;2023-11-21T10:10:25;101822.84;;;10.33;100.00
48267;BME280;34088;52.232;5.196;2023-11-21T10:12:55;101821.25;;;10.26;100.00
48267;BME280;34088;52.232;5.196;2023-11-21T10:15:22;101815.31;;;10.21;100.00
48267;BME280;34088;52.232;5.196;2023-11-21T10:17:52;101831.63;;;10.26;100.00
48267;BME280;34088;52.232;5.196;2023-11-21T10:20:21;101841.97;;;10.26;100.00
48267;BME280;34088;52.232;5.196;2023-11-21T10:22:48;101847.25;;;10.20;100.00
48267;BME280;34088;52.232;5.196;2023-11-21T10:25:14;101852.31;;;10.26;100.00
48267;BME280;34088;52.232;5.196;2023-11-21T10:27:40;101849.72;;;10.28;100.00
48267;BME280;34088;52.232;5.196;2023-11-21T10:30:07;101864.38;;;10.27;100.00
48267;BME280;34088;52.232;5.196;2023-11-21T10:32:37;101871.22;;;10.30;100.00
48267;BME280;34088;52.232;5.196;2023-11-21T10:35:02;101880.69;;;10.31;100.00
48267;BME280;34088;52.232;5.196;2023-11-21T10:37:32;101879.16;;;10.21;100.00
48267;BME280;34088;52.232;5.196;2023-11-21T10:39:58;101886.88;;;10.22;100.00
48267;BME280;34088;52.232;5.196;2023-11-21T10:42:24;101884.44;;;10.15;100.00
48267;BME280;34088;52.232;5.196;2023-11-21T10:44:49;101881.81;;;10.16;100.00
48267;BME280;34088;52.232;5.196;2023-11-21T10:47:15;101888.69;;;10.17;100.00
48267;BME280;34088;52.232;5.196;2023-11-21T10:49:41;101887.06;;;10.12;100.00
48267;BME280;34088;52.232;5.196;2023-11-21T10:52:06;101880.97;;;10.16;100.00
48267;BME280;34088;52.232;5.196;2023-11-21T10:54:31;101886.16;;;10.16;100.00
48267;BME280;34088;52.232;5.196;2023-11-21T10:56:58;101892.94;;;10.23;100.00
48267;BME280;34088;52.232;5.196;2023-11-21T10:59:28;101894.50;;;10.31;100.00
48267;BME280;34088;52.232;5.196;2023-11-21T11:01:57;101897.97;;;10.30;100.00
48267;BME280;34088;52.232;5.196;2023-11-21T11:04:24;101901.38;;;10.32;100.00
48267;BME280;34088;52.232;5.196;2023-11-21T11:06:57;101907.56;;;10.25;100.00
48267;BME280;34088;52.232;5.196;2023-11-21T11:09:27;101913.47;;;10.32;100.00
48267;BME280;34088;52.232;5.196;2023-11-21T11:11:52;101916.13;;;10.27;100.00
48267;BME280;34088;52.232;5.196;2023-11-21T11:14:19;101926.50;;;10.26;100.00
48267;BME280;34088;52.232;5.196;2023-11-21T11:16:45;101925.75;;;10.21;100.00
48267;BME280;34088;52.232;5.196;2023-11-21T11:19:10;101930.03;;;10.23;100.00
48267;BME280;34088;52.232;5.196;2023-11-21T11:35:04;101929.97;;;10.26;100.00
48267;BME280;34088;52.232;5.196;2023-11-21T11:37:32;101929.09;;;10.26;100.00
48267;BME280;34088;52.232;5.196;2023-11-21T11:39:58;101940.31;;;10.26;100.00
48267;BME280;34088;52.232;5.196;2023-11-21T11:42:24;101937.78;;;10.23;100.00
48267;BME280;34088;52.232;5.196;2023-11-21T11:44:51;101947.16;;;10.29;100.00
48267;BME280;34088;52.232;5.196;2023-11-21T11:49:57;101941.13;;;10.30;100.00
48267;BME280;34088;52.232;5.196;2023-11-21T11:54:59;101952.53;;;10.18;100.00
48267;BME280;34088;52.232;5.196;2023-11-21T11:57:25;101961.94;;;10.22;100.00
48267;BME280;34088;52.232;5.196;2023-11-21T12:02:44;101963.63;;;10.25;100.00
48267;BME280;34088;52.232;5.196;2023-11-21T12:05:11;101968.84;;;10.23;100.00
48267;BME280;34088;52.232;5.196;2023-11-21T12:07:53;101962.03;;;10.16;100.00
48267;BME280;34088;52.232;5.196;2023-11-21T12:10:21;101957.72;;;10.15;100.00
48267;BME280;34088;52.232;5.196;2023-11-21T12:12:51;101969.84;;;10.13;100.00
48267;BME280;34088;52.232;5.196;2023-11-21T12:15:18;101968.16;;;10.09;100.00
48267;BME280;34088;52.232;5.196;2023-11-21T12:17:45;101963.00;;;10.09;100.00
48267;BME280;34088;52.232;5.196;2023-11-21T12:20:12;101958.72;;;10.05;100.00
48267;BME280;34088;52.232;5.196;2023-11-21T12:22:50;101965.47;;;10.17;100.00
48267;BME280;34088;52.232;5.196;2023-11-21T12:25:21;101968.78;;;10.26;100.00
48267;BME280;34088;52.232;5.196;2023-11-21T12:27:51;101976.50;;;10.29;100.00
48267;BME280;34088;52.232;5.196;2023-11-21T12:30:18;101977.44;;;10.24;100.00
48267;BME280;34088;52.232;5.196;2023-11-21T12:32:44;101989.47;;;10.26;100.00
48267;BME280;34088;52.232;5.196;2023-11-21T12:35:12;101992.94;;;10.25;100.00
48267;BME280;34088;52.232;5.196;2023-11-21T12:37:39;101980.00;;;10.27;100.00
48267;BME280;34088;52.232;5.196;2023-11-21T12:40:08;101985.94;;;10.32;100.00
48267;BME280;34088;52.232;5.196;2023-11-21T12:42:36;101990.19;;;10.37;100.00
48267;BME280;34088;52.232;5.196;2023-11-21T12:45:07;101992.06;;;10.28;100.00
48267;BME280;34088;52.232;5.196;2023-11-21T12:47:35;101997.25;;;10.26;100.00
48267;BME280;34088;52.232;5.196;2023-11-21T12:50:02;102000.56;;;10.34;100.00
48267;BME280;34088;52.232;5.196;2023-11-21T12:52:28;102010.09;;;10.32;100.00
48267;BME280;34088;52.232;5.196;2023-11-21T12:54:53;102012.78;;;10.26;100.00
48267;BME280;34088;52.232;5.196;2023-11-21T12:57:19;102023.09;;;10.29;100.00
48267;BME280;34088;52.232;5.196;2023-11-21T12:59:45;102019.66;;;10.27;100.00
48267;BME280;34088;52.232;5.196;2023-11-21T13:02:12;102027.31;;;10.36;100.00
48267;BME280;34088;52.232;5.196;2023-11-21T13:04:39;102018.66;;;10.36;100.00
48267;BME280;34088;52.232;5.196;2023-11-21T13:07:05;102035.88;;;10.40;100.00
48267;BME280;34088;52.232;5.196;2023-11-21T13:09:39;102035.19;;;10.27;100.00
48267;BME280;34088;52.232;5.196;2023-11-21T13:12:06;102028.50;;;10.11;100.00
48267;BME280;34088;52.232;5.196;2023-11-21T13:14:34;102039.63;;;10.18;100.00
48267;BME280;34088;52.232;5.196;2023-11-21T13:16:59;102042.22;;;10.19;100.00